This is the latest recevied weather packets stored in our database for station/object DL1DH-17. If no packets are shown the sender has not sent any weather packets the latest 10 day(s).
| Time | Temp. | Humidity | Pressure | Rain* | Wind** | Luminosity | Snow |
|---|---|---|---|---|---|---|---|
| 1778346589 | 17.22° C | 52% | 975.9 hPa | - | - | - | - |
| 1778345749 | 17.78° C | 52% | 976 hPa | - | - | - | - |
| 1778344908 | 17.78° C | 51% | 976 hPa | - | - | - | - |
| 1778344068 | 17.78° C | 52% | 976.1 hPa | - | - | - | - |
| 1778343228 | 18.33° C | 51% | 976.2 hPa | - | - | - | - |
| 1778342388 | 18.33° C | 51% | 976.3 hPa | - | - | - | - |
| 1778341548 | 17.78° C | 52% | 976.3 hPa | - | - | - | - |
| 1778340708 | 18.33° C | 51% | 976.4 hPa | - | - | - | - |
| 1778339868 | 17.78° C | 53% | 976.5 hPa | - | - | - | - |
| 1778339028 | 17.78° C | 53% | 976.7 hPa | - | - | - | - |
| 1778338188 | 17.22° C | 54% | 976.8 hPa | - | - | - | - |
| 1778337348 | 18.33° C | 52% | 976.8 hPa | - | - | - | - |
| 1778336507 | 18.33° C | 52% | 976.9 hPa | - | - | - | - |
| 1778335667 | 17.78° C | 55% | 977.1 hPa | - | - | - | - |
| 1778334827 | 17.22° C | 55% | 977.1 hPa | - | - | - | - |
| 1778333987 | 16.67° C | 56% | 977.4 hPa | - | - | - | - |
| 1778333147 | 16.67° C | 55% | 977.6 hPa | - | - | - | - |
| 1778332307 | 17.22° C | 55% | 977.8 hPa | - | - | - | - |
| 1778331467 | 16.67° C | 57% | 978 hPa | - | - | - | - |
| 1778330627 | 16.67° C | 55% | 978.1 hPa | - | - | - | - |
| 1778329787 | 17.22° C | 55% | 978.1 hPa | - | - | - | - |
| 1778328947 | 16.67° C | 57% | 978.2 hPa | - | - | - | - |
| 1778328107 | 15.56° C | 58% | 978.4 hPa | - | - | - | - |
| 1778327265 | 16.11° C | 57% | 978.5 hPa | - | - | - | - |
| 1778326425 | 15.56° C | 60% | 978.7 hPa | - | - | - | - |
* Rain since midnight (hover to see other rain measurements)
** Current wind speed in m/s (hover to see current wind gust speed)